This is the latest recevied weather packets stored in our database for station/object EA2AFZ-W. If no packets are shown the sender has not sent any weather packets the latest 1 day(s).
| Time | Temp. | Humidity | Pressure | Rain* | Wind** | Luminosity | Snow |
|---|---|---|---|---|---|---|---|
| 1778001308 | 13.33° C | 67% | 1014 hPa | 0 mm | 8.05 m/s, 300° | - | - |
| 1777999506 | 13.33° C | 67% | 1014 hPa | 0 mm | 8.05 m/s, 300° | - | - |
| 1777997764 | 13.89° C | 71% | 1014 hPa | 0 mm | 8.05 m/s, 300° | - | - |
| 1777995962 | 13.89° C | 70% | 1014 hPa | 0 mm | 8.05 m/s, 300° | - | - |
| 1777994160 | 13.89° C | 69% | 1014 hPa | 0 mm | 8.05 m/s, 300° | - | - |
| 1777992358 | 13.89° C | 70% | 1014 hPa | 0 mm | 8.49 m/s, 300° | - | - |
| 1777990556 | 13.89° C | 75% | 1014 hPa | 0 mm | 7.6 m/s, 310° | - | - |
| 1777988753 | 13.89° C | 78% | 1014 hPa | 0 mm | 6.26 m/s, 310° | - | - |
| 1777986952 | 14.44° C | 70% | 1014 hPa | 0 mm | 4.92 m/s, 300° | - | - |
| 1777985149 | 13.89° C | 67% | 1014 hPa | 0 mm | 4.92 m/s, 300° | - | - |
| 1777983346 | 13.89° C | 75% | 1014 hPa | 0 mm | 4.92 m/s, 300° | - | - |
| 1777981544 | 13.89° C | 71% | 1014 hPa | 0 mm | 4.92 m/s, 300° | - | - |
| 1777979742 | 14.44° C | 67% | 1014 hPa | 0 mm | 4.92 m/s, 300° | - | - |
| 1777977940 | 15° C | 57% | 1014 hPa | 0 mm | 4.92 m/s, 300° | - | - |
| 1777976138 | 15° C | 54% | 1014 hPa | 0 mm | 4.92 m/s, 300° | - | - |
| 1777974336 | 15.56° C | 55% | 1014 hPa | 0 mm | 1.79 m/s, 0° | - | - |
| 1777972534 | 13.89° C | 61% | 1013 hPa | 0 mm | 1.79 m/s, 13° | - | - |
| 1777970731 | 13.89° C | 64% | 1014 hPa | 0 mm | 0.89 m/s, 0° | - | - |
| 1777968929 | 12.78° C | 72% | 1014 hPa | 0 mm | 1.34 m/s, 80° | - | - |
| 1777967128 | 11.67° C | 75% | 1014 hPa | 0 mm | 1.34 m/s, 80° | - | - |
| 1777965324 | 11.11° C | 75% | 1014 hPa | 0 mm | 1.34 m/s, 80° | - | - |
| 1777963523 | 11.11° C | 76% | 1014 hPa | 0 mm | 1.34 m/s, 80° | - | - |
| 1777961720 | 10.56° C | 76% | 1013 hPa | 0 mm | 9.39 m/s, 10° | - | - |
| 1777959919 | 10.56° C | 76% | 1014 hPa | 0 mm | 9.39 m/s, 10° | - | - |
* Rain latest hour (hover to see other rain measurements)
** Current wind speed in m/s (hover to see current wind gust speed)